createdAt,value
2023-08-07T00:02:23.721Z,52.75
2023-08-07T00:04:51.217Z,52.03
2023-08-07T00:07:19.463Z,52.08
2023-08-07T00:09:46.780Z,51.87
2023-08-07T00:12:14.295Z,51.35
2023-08-07T00:14:42.246Z,50.74
2023-08-07T00:17:09.810Z,51.07
2023-08-07T00:19:37.361Z,51.31
2023-08-07T00:22:06.058Z,51.03
2023-08-07T00:24:34.094Z,51.07
2023-08-07T00:27:01.956Z,51.42
2023-08-07T00:29:34.573Z,51.05
2023-08-07T00:32:02.341Z,51.03
2023-08-07T00:34:30.865Z,50.92
2023-08-07T00:36:58.493Z,50.96
2023-08-07T00:39:26.515Z,51.03
2023-08-07T00:41:53.912Z,50.70
2023-08-07T00:44:22.041Z,51.14
2023-08-07T00:46:49.792Z,51.07
2023-08-07T00:49:19.146Z,50.22
2023-08-07T00:51:47.184Z,50.07
2023-08-07T00:54:20.886Z,50.60
2023-08-07T00:56:48.738Z,49.73
2023-08-07T00:59:17.119Z,49.52
2023-08-07T01:01:44.451Z,50.11
2023-08-07T01:04:11.798Z,50.17
2023-08-07T01:06:39.447Z,49.19
2023-08-07T01:09:08.191Z,49.63
2023-08-07T01:12:17.174Z,49.58
2023-08-07T01:15:11.299Z,48.91
2023-08-07T01:17:39.189Z,49.62
2023-08-07T01:20:08.082Z,48.74
2023-08-07T01:22:36.026Z,49.40
2023-08-07T01:25:04.599Z,49.03
2023-08-07T01:28:16.243Z,48.93
2023-08-07T01:30:51.299Z,49.64
2023-08-07T01:33:55.479Z,48.92
2023-08-07T01:36:28.873Z,49.39
2023-08-07T01:39:03.196Z,49.45
2023-08-07T01:41:32.117Z,49.31
2023-08-07T01:43:59.560Z,49.68
2023-08-07T01:46:27.014Z,49.72
2023-08-07T01:48:54.917Z,49.26
2023-08-07T01:51:22.931Z,49.31
2023-08-07T01:53:50.604Z,49.53
2023-08-07T01:56:18.432Z,49.89
2023-08-07T01:58:46.091Z,49.74
2023-08-07T02:01:13.510Z,49.17
2023-08-07T02:03:40.904Z,49.24
2023-08-07T02:06:08.227Z,49.26
2023-08-07T02:08:39.179Z,49.30
2023-08-07T02:11:06.923Z,48.91
2023-08-07T02:13:34.215Z,48.83
2023-08-07T02:16:01.675Z,48.85
2023-08-07T02:18:29.489Z,49.22
2023-08-07T02:20:56.982Z,49.22
2023-08-07T02:23:24.403Z,47.90
2023-08-07T02:25:53.079Z,48.16
2023-08-07T02:28:20.993Z,48.30
2023-08-07T02:30:49.897Z,47.43
2023-08-07T02:33:18.276Z,47.51
2023-08-07T02:35:45.805Z,47.39
2023-08-07T02:38:13.682Z,48.27
2023-08-07T02:40:41.451Z,47.57
2023-08-07T02:43:08.925Z,48.39
2023-08-07T02:45:37.816Z,48.02
2023-08-07T02:48:05.536Z,47.75
2023-08-07T02:50:33.813Z,47.71
2023-08-07T02:53:02.908Z,48.30
2023-08-07T02:55:30.153Z,47.25
2023-08-07T02:57:57.850Z,46.34
2023-08-07T03:00:25.383Z,46.10
2023-08-07T03:02:52.566Z,45.80
2023-08-07T03:05:20.101Z,45.37
2023-08-07T03:07:48.142Z,45.19
2023-08-07T03:10:16.356Z,45.27
2023-08-07T03:12:43.666Z,45.61
2023-08-07T03:15:12.087Z,45.59
2023-08-07T03:17:39.732Z,45.05
2023-08-07T03:20:08.175Z,45.47
2023-08-07T03:22:35.671Z,46.37
2023-08-07T03:25:03.467Z,46.18
2023-08-07T03:27:31.484Z,45.96
2023-08-07T03:29:59.385Z,46.96
2023-08-07T03:32:29.917Z,47.63
2023-08-07T03:34:58.289Z,46.76
2023-08-07T03:37:26.504Z,46.67
2023-08-07T03:39:54.107Z,46.76
2023-08-07T03:42:21.707Z,46.98
2023-08-07T03:44:48.927Z,47.14
2023-08-07T03:47:16.307Z,46.93
2023-08-07T03:49:44.322Z,46.98
2023-08-07T03:52:11.616Z,47.22
2023-08-07T03:54:39.455Z,47.36
2023-08-07T03:57:06.906Z,47.17
2023-08-07T03:59:34.382Z,46.82
2023-08-07T04:02:02.026Z,46.69
2023-08-07T04:04:30.738Z,47.03
2023-08-07T04:06:58.565Z,47.11
2023-08-07T04:09:26.070Z,46.58
2023-08-07T04:11:53.649Z,47.53
2023-08-07T04:14:21.198Z,47.82
2023-08-07T04:16:48.670Z,47.47
2023-08-07T04:19:16.179Z,47.47
2023-08-07T04:21:44.176Z,46.98
2023-08-07T04:24:12.104Z,47.08
2023-08-07T04:26:40.191Z,47.94
2023-08-07T04:29:08.376Z,47.14
2023-08-07T04:31:36.534Z,47.21
2023-08-07T04:34:03.994Z,46.73
2023-08-07T04:36:31.261Z,47.09
2023-08-07T04:38:58.813Z,47.08
2023-08-07T04:41:26.456Z,46.86
2023-08-07T04:43:53.834Z,46.80
2023-08-07T04:46:21.029Z,46.46
2023-08-07T04:48:49.496Z,46.68
2023-08-07T04:51:17.035Z,46.34
2023-08-07T04:53:44.260Z,46.25
2023-08-07T04:56:11.660Z,46.69
2023-08-07T04:58:39.437Z,46.57
2023-08-07T05:01:07.803Z,47.11
2023-08-07T05:03:35.146Z,46.94
2023-08-07T05:06:03.095Z,46.10
2023-08-07T05:08:31.030Z,45.83
2023-08-07T05:10:58.917Z,46.03
2023-08-07T05:13:26.534Z,45.99
2023-08-07T05:15:54.337Z,46.70
2023-08-07T05:18:21.737Z,46.65
2023-08-07T05:20:49.381Z,46.32
2023-08-07T05:23:16.696Z,46.28
2023-08-07T05:25:49.954Z,46.03
2023-08-07T05:28:17.846Z,46.01
2023-08-07T05:30:45.695Z,45.99
2023-08-07T05:33:15.991Z,46.27
2023-08-07T05:35:43.892Z,46.95
2023-08-07T05:38:11.724Z,45.79
2023-08-07T05:40:39.311Z,46.02
2023-08-07T05:43:06.532Z,45.51
2023-08-07T05:45:33.770Z,45.73
2023-08-07T05:48:01.114Z,44.97
2023-08-07T05:50:28.413Z,45.00
2023-08-07T05:52:55.859Z,44.67
2023-08-07T05:55:23.302Z,44.09
2023-08-07T05:57:51.192Z,43.15
2023-08-07T06:00:20.659Z,43.47
2023-08-07T06:02:48.232Z,43.95
2023-08-07T06:05:17.258Z,43.76
2023-08-07T06:07:44.621Z,43.14
2023-08-07T06:10:15.711Z,42.14
2023-08-07T06:12:43.263Z,42.21
2023-08-07T06:15:11.513Z,42.75
2023-08-07T06:17:40.458Z,41.54
2023-08-07T06:20:12.729Z,41.71
2023-08-07T06:22:44.950Z,41.63
2023-08-07T06:25:12.227Z,41.90
2023-08-07T06:27:39.936Z,41.59
2023-08-07T06:30:08.848Z,41.67
2023-08-07T06:32:37.819Z,41.85
2023-08-07T06:35:06.182Z,41.26
2023-08-07T06:37:33.581Z,40.83
2023-08-07T06:40:01.205Z,38.99
2023-08-07T06:42:28.522Z,39.02
2023-08-07T06:44:55.933Z,39.55
2023-08-07T06:47:23.345Z,39.08
2023-08-07T06:49:50.810Z,39.46
2023-08-07T06:52:18.030Z,39.63
2023-08-07T06:54:45.404Z,39.82
2023-08-07T06:57:16.231Z,38.76
2023-08-07T06:59:43.714Z,37.99
2023-08-07T07:02:11.035Z,35.50
2023-08-07T07:04:38.226Z,33.79
2023-08-07T07:07:05.892Z,32.41
2023-08-07T07:09:33.380Z,31.35
2023-08-07T07:12:00.793Z,29.53
2023-08-07T07:14:28.594Z,28.77
2023-08-07T07:16:55.867Z,28.81
2023-08-07T07:19:23.077Z,27.63
2023-08-07T07:21:51.183Z,23.93
2023-08-07T07:24:18.786Z,24.96
2023-08-07T07:26:46.352Z,27.12
2023-08-07T07:29:13.819Z,28.77
2023-08-07T07:31:41.429Z,30.00
2023-08-07T07:34:08.937Z,31.37
2023-08-07T07:36:36.182Z,31.91
2023-08-07T07:39:03.875Z,33.15
2023-08-07T07:41:31.183Z,33.72
2023-08-07T07:43:58.498Z,33.44
2023-08-07T07:46:26.927Z,34.06
2023-08-07T07:48:54.184Z,34.99
2023-08-07T07:51:21.622Z,34.64
2023-08-07T07:53:54.842Z,34.05
2023-08-07T07:56:28.210Z,33.30
2023-08-07T07:58:57.023Z,32.78
2023-08-07T08:01:24.659Z,32.64
2023-08-07T08:03:52.086Z,32.35
2023-08-07T08:06:19.927Z,32.23
2023-08-07T08:08:47.268Z,32.87
2023-08-07T08:11:15.369Z,31.88
2023-08-07T08:13:42.846Z,32.49
2023-08-07T08:16:10.381Z,33.11
2023-08-07T08:18:37.620Z,31.97
2023-08-07T08:21:05.717Z,32.15
2023-08-07T08:23:33.366Z,31.83
2023-08-07T08:26:04.753Z,31.96
2023-08-07T08:28:33.062Z,32.56
2023-08-07T08:31:00.732Z,32.69
2023-08-07T08:33:28.142Z,33.25
2023-08-07T08:35:55.341Z,33.68
2023-08-07T08:38:23.133Z,34.17
2023-08-07T08:40:53.714Z,33.24
2023-08-07T08:43:22.144Z,33.28
2023-08-07T08:45:49.774Z,32.74
2023-08-07T08:48:24.737Z,30.93
2023-08-07T08:50:53.403Z,29.07
2023-08-07T08:53:23.484Z,28.84
2023-08-07T08:55:52.402Z,28.24
2023-08-07T08:58:22.567Z,28.29
2023-08-07T09:00:51.692Z,27.58
2023-08-07T09:03:20.395Z,26.90
2023-08-07T09:05:49.967Z,26.03
2023-08-07T09:08:18.727Z,24.99
2023-08-07T09:10:46.970Z,23.68
2023-08-07T09:13:23.280Z,24.28
2023-08-07T09:15:53.446Z,24.16
2023-08-07T09:18:23.536Z,23.09
2023-08-07T09:20:52.359Z,22.02
2023-08-07T09:23:20.643Z,23.06
2023-08-07T09:25:48.187Z,22.34
2023-08-07T09:28:15.950Z,21.57
2023-08-07T09:30:45.489Z,22.15
2023-08-07T09:33:13.162Z,21.21
2023-08-07T09:35:41.106Z,22.04
2023-08-07T09:38:09.057Z,21.96
2023-08-07T09:40:36.883Z,22.05
2023-08-07T09:43:04.492Z,23.05
2023-08-07T09:45:32.771Z,22.91
2023-08-07T09:48:07.608Z,23.95
2023-08-07T09:50:35.030Z,24.39
2023-08-07T09:53:02.881Z,24.71
2023-08-07T09:55:30.380Z,23.09
2023-08-07T09:57:57.620Z,22.05
2023-08-07T10:00:24.804Z,20.84
2023-08-07T10:02:52.766Z,20.99
2023-08-07T10:05:23.330Z,20.64
2023-08-07T10:07:53.162Z,22.31
2023-08-07T10:10:21.503Z,22.41
2023-08-07T10:12:50.406Z,21.90
2023-08-07T10:15:18.901Z,21.12
2023-08-07T10:17:46.415Z,21.28
2023-08-07T10:20:18.438Z,19.31
2023-08-07T10:22:47.604Z,18.09
2023-08-07T10:25:17.138Z,18.19
2023-08-07T10:27:45.940Z,18.13
2023-08-07T10:30:17.606Z,17.47
2023-08-07T10:32:46.670Z,17.61
2023-08-07T10:35:33.803Z,16.65
2023-08-07T10:38:12.645Z,16.54
2023-08-07T10:41:07.566Z,16.08
2023-08-07T10:43:46.687Z,17.74
2023-08-07T10:46:25.789Z,19.20
2023-08-07T10:49:00.685Z,19.26
2023-08-07T10:51:34.695Z,20.94
2023-08-07T10:54:03.572Z,21.75
2023-08-07T10:56:38.737Z,22.00
2023-08-07T10:59:13.974Z,22.88
2023-08-07T11:01:44.135Z,23.70
2023-08-07T11:04:15.563Z,24.27
2023-08-07T11:06:48.445Z,24.78
2023-08-07T11:09:16.108Z,26.25
2023-08-07T11:11:50.185Z,26.60
2023-08-07T11:14:20.789Z,27.21
2023-08-07T11:16:49.757Z,26.83
2023-08-07T11:19:19.545Z,25.13
2023-08-07T11:21:47.220Z,24.40
2023-08-07T11:24:17.172Z,24.72
2023-08-07T11:26:48.390Z,25.40
2023-08-07T11:29:23.958Z,25.06
2023-08-07T11:31:52.998Z,26.03
2023-08-07T11:34:22.133Z,26.69
2023-08-07T11:36:49.600Z,27.81
2023-08-07T11:39:18.376Z,27.79
2023-08-07T11:41:46.852Z,28.34
2023-08-07T11:44:14.322Z,28.37
2023-08-07T11:51:41.182Z,31.12
2023-08-07T11:54:08.826Z,30.97
2023-08-07T11:56:36.134Z,31.00
2023-08-07T11:59:04.585Z,32.92
2023-08-07T12:01:39.440Z,32.83
2023-08-07T12:04:06.797Z,33.77
2023-08-07T12:06:37.111Z,34.02
2023-08-07T12:09:04.722Z,34.54
2023-08-07T12:11:33.391Z,34.30
2023-08-07T12:14:04.919Z,34.57
2023-08-07T12:16:36.659Z,34.03
2023-08-07T12:19:05.387Z,33.75
2023-08-07T12:21:34.800Z,33.20
2023-08-07T12:24:02.415Z,33.44
2023-08-07T12:26:31.224Z,33.13
2023-08-07T12:28:59.283Z,32.89
2023-08-07T12:31:26.890Z,33.81
2023-08-07T12:33:55.261Z,34.59
2023-08-07T12:36:23.375Z,35.02
2023-08-07T12:38:51.163Z,35.61
2023-08-07T12:43:48.911Z,31.94
2023-08-07T12:48:46.419Z,30.20
2023-08-07T12:51:14.125Z,29.54
2023-08-07T12:53:41.811Z,29.81
2023-08-07T12:56:09.092Z,29.94
2023-08-07T12:58:36.560Z,30.41
2023-08-07T13:01:05.937Z,30.61
2023-08-07T13:03:33.414Z,30.50
2023-08-07T13:06:00.872Z,30.86
2023-08-07T13:08:29.293Z,30.67
2023-08-07T13:10:57.637Z,29.96
2023-08-07T13:13:25.548Z,28.88
2023-08-07T13:15:55.366Z,29.11
2023-08-07T13:18:23.737Z,28.70
2023-08-07T13:20:51.642Z,28.91
2023-08-07T13:23:19.183Z,29.02
2023-08-07T13:25:46.682Z,28.86
2023-08-07T13:28:14.237Z,28.42
2023-08-07T13:30:42.488Z,28.74
2023-08-07T13:33:10.039Z,29.88
2023-08-07T13:35:37.400Z,30.67
2023-08-07T13:38:07.063Z,30.92
2023-08-07T13:40:35.870Z,31.35
2023-08-07T13:43:08.615Z,31.63
2023-08-07T13:45:38.222Z,32.49
2023-08-07T13:48:08.591Z,32.56
2023-08-07T13:50:38.842Z,32.36
2023-08-07T13:53:14.610Z,32.59
2023-08-07T13:55:44.859Z,32.14
2023-08-07T13:58:12.952Z,31.84
2023-08-07T14:00:41.569Z,30.98
2023-08-07T14:03:11.797Z,30.37
2023-08-07T14:05:39.474Z,28.75
2023-08-07T14:08:07.629Z,27.35
2023-08-07T14:10:37.688Z,28.11
2023-08-07T14:13:06.711Z,27.23
2023-08-07T14:15:33.933Z,27.21
2023-08-07T14:18:01.159Z,27.21
2023-08-07T14:20:29.335Z,27.85
2023-08-07T14:23:03.019Z,29.30
2023-08-07T14:25:33.921Z,29.52
2023-08-07T14:28:02.060Z,30.37
2023-08-07T14:30:29.926Z,29.43
2023-08-07T14:32:57.621Z,27.97
2023-08-07T14:35:25.139Z,26.78
2023-08-07T14:37:52.569Z,26.22
2023-08-07T14:40:20.104Z,26.86
2023-08-07T14:42:47.340Z,27.45
2023-08-07T14:45:16.270Z,28.19
2023-08-07T14:47:43.767Z,28.63
2023-08-07T14:50:11.814Z,30.17
2023-08-07T14:52:39.209Z,30.40
2023-08-07T14:55:07.395Z,30.27
2023-08-07T14:57:34.768Z,30.43
2023-08-07T15:00:02.497Z,29.91
2023-08-07T15:02:32.611Z,29.35
2023-08-07T15:05:00.005Z,29.12
2023-08-07T15:07:27.661Z,28.77
2023-08-07T15:09:55.682Z,28.30
2023-08-07T15:12:23.266Z,28.47
2023-08-07T15:14:50.863Z,29.05
2023-08-07T15:17:18.334Z,28.50
2023-08-07T15:19:45.587Z,29.47
2023-08-07T15:22:13.409Z,29.90
2023-08-07T15:24:41.114Z,28.95
2023-08-07T15:27:09.045Z,29.59
2023-08-07T15:29:37.137Z,28.58
2023-08-07T15:32:05.536Z,29.00
2023-08-07T15:34:32.744Z,29.66
2023-08-07T15:37:00.428Z,29.27
2023-08-07T15:39:28.602Z,29.17
2023-08-07T15:41:56.290Z,29.72
2023-08-07T15:44:23.608Z,30.56
2023-08-07T15:46:50.721Z,29.90
2023-08-07T15:49:18.207Z,30.23
2023-08-07T15:51:46.208Z,30.24
2023-08-07T15:54:13.455Z,30.58
2023-08-07T15:56:40.753Z,30.48
2023-08-07T15:59:08.298Z,30.38
2023-08-07T16:01:35.757Z,31.90
2023-08-07T16:04:03.806Z,31.20
2023-08-07T16:06:32.060Z,30.49
2023-08-07T16:08:59.931Z,30.71
2023-08-07T16:11:27.706Z,30.98
2023-08-07T16:13:54.998Z,29.94
2023-08-07T16:16:22.387Z,30.32
2023-08-07T16:18:49.887Z,30.24
2023-08-07T16:21:17.603Z,29.06
2023-08-07T16:23:45.027Z,30.56
2023-08-07T16:26:13.111Z,29.75
2023-08-07T16:28:40.775Z,29.81
2023-08-07T16:31:08.598Z,29.70
2023-08-07T16:33:36.446Z,29.63
2023-08-07T16:36:03.835Z,29.95
2023-08-07T16:38:31.548Z,29.38
2023-08-07T16:40:59.094Z,29.55
2023-08-07T16:43:26.525Z,30.41
2023-08-07T16:45:53.929Z,29.45
2023-08-07T16:48:21.169Z,30.17
2023-08-07T16:51:02.514Z,29.70
2023-08-07T16:53:37.973Z,30.59
2023-08-07T16:56:06.763Z,30.82
2023-08-07T16:58:35.006Z,30.06
2023-08-07T17:01:02.385Z,30.13
2023-08-07T17:03:29.750Z,30.63
2023-08-07T17:05:57.202Z,32.25
2023-08-07T17:08:25.008Z,31.02
2023-08-07T17:10:53.294Z,31.45
2023-08-07T17:13:21.482Z,31.72
2023-08-07T17:15:49.062Z,31.82
2023-08-07T17:18:16.539Z,32.16
2023-08-07T17:20:44.717Z,31.47
2023-08-07T17:23:12.435Z,30.87
2023-08-07T17:25:40.273Z,30.86
2023-08-07T17:28:08.490Z,31.16
2023-08-07T17:30:36.486Z,31.09
2023-08-07T17:33:04.944Z,31.21
2023-08-07T17:35:32.866Z,32.52
2023-08-07T17:38:00.387Z,32.78
2023-08-07T17:40:28.193Z,33.14
2023-08-07T17:42:55.537Z,33.60
2023-08-07T17:45:22.969Z,33.37
2023-08-07T17:47:50.341Z,34.46
2023-08-07T17:50:18.094Z,34.34
2023-08-07T17:52:45.678Z,33.73
2023-08-07T17:55:13.617Z,33.66
2023-08-07T17:57:40.908Z,32.94
2023-08-07T18:00:10.799Z,32.98
2023-08-07T18:02:38.323Z,32.82
2023-08-07T18:05:06.961Z,32.65
2023-08-07T18:07:35.119Z,32.68
2023-08-07T18:10:04.021Z,33.16
2023-08-07T18:12:31.769Z,33.56
2023-08-07T18:14:59.769Z,33.65
2023-08-07T18:17:27.009Z,33.33
2023-08-07T18:19:54.295Z,34.01
2023-08-07T18:22:22.008Z,34.58
2023-08-07T18:24:49.522Z,34.43
2023-08-07T18:27:18.959Z,34.81
2023-08-07T18:29:46.933Z,35.30
2023-08-07T18:32:14.725Z,35.99
2023-08-07T18:34:42.025Z,35.88
2023-08-07T18:37:09.373Z,36.68
2023-08-07T18:39:37.224Z,36.58
2023-08-07T18:42:05.372Z,36.40
2023-08-07T18:44:32.679Z,36.52
2023-08-07T18:47:00.578Z,36.53
2023-08-07T18:49:28.190Z,37.02
2023-08-07T18:51:55.940Z,37.37
2023-08-07T18:54:25.376Z,37.60
2023-08-07T18:56:53.645Z,37.57
2023-08-07T18:59:20.994Z,38.26
2023-08-07T19:01:48.442Z,38.29
2023-08-07T19:04:16.838Z,38.57
2023-08-07T19:06:44.970Z,39.15
2023-08-07T19:09:13.646Z,39.08
2023-08-07T19:11:41.677Z,39.65
2023-08-07T19:14:09.378Z,39.46
2023-08-07T19:16:36.734Z,39.39
2023-08-07T19:19:04.151Z,39.33
2023-08-07T19:21:32.160Z,39.91
2023-08-07T19:23:59.747Z,39.87
2023-08-07T19:26:52.811Z,41.28
2023-08-07T19:29:20.756Z,40.22
2023-08-07T19:31:48.754Z,40.04
2023-08-07T19:34:17.526Z,39.53
2023-08-07T19:36:44.895Z,40.43
2023-08-07T19:39:13.021Z,41.42
2023-08-07T19:41:41.628Z,41.53
2023-08-07T19:44:11.556Z,41.29
2023-08-07T19:46:39.061Z,41.69
2023-08-07T19:49:06.387Z,41.92
2023-08-07T19:51:34.330Z,40.89
2023-08-07T19:54:02.765Z,41.93
2023-08-07T19:56:33.509Z,40.84
2023-08-07T19:59:04.701Z,41.99
2023-08-07T20:01:33.091Z,41.23
2023-08-07T20:04:00.813Z,41.35
2023-08-07T20:06:37.733Z,42.09
2023-08-07T20:09:05.442Z,43.08
2023-08-07T20:11:39.320Z,42.81
2023-08-07T20:14:07.729Z,43.42
2023-08-07T20:16:35.715Z,44.25
2023-08-07T20:19:03.436Z,43.60
2023-08-07T20:21:31.280Z,43.68
2023-08-07T20:23:59.061Z,42.96
2023-08-07T20:26:51.792Z,42.61
2023-08-07T20:29:20.552Z,43.27
2023-08-07T20:31:48.536Z,44.47
2023-08-07T20:34:16.171Z,45.56
2023-08-07T20:36:43.654Z,43.57
2023-08-07T20:39:14.646Z,44.37
2023-08-07T20:41:42.418Z,44.46
2023-08-07T20:44:09.699Z,46.10
2023-08-07T20:46:36.913Z,45.09
2023-08-07T20:49:04.289Z,45.90
2023-08-07T20:51:35.251Z,45.64
2023-08-07T20:54:03.110Z,46.23
2023-08-07T20:56:30.402Z,45.87
2023-08-07T20:58:57.780Z,46.19
2023-08-07T21:01:25.539Z,47.23
2023-08-07T21:03:52.776Z,47.31
2023-08-07T21:06:20.298Z,48.18
2023-08-07T21:08:48.466Z,48.86
2023-08-07T21:11:16.432Z,48.74
2023-08-07T21:13:44.434Z,48.01
2023-08-07T21:16:11.633Z,48.92
2023-08-07T21:18:39.117Z,48.21
2023-08-07T21:21:07.453Z,46.96
2023-08-07T21:23:36.013Z,46.88
2023-08-07T21:26:03.842Z,47.06
2023-08-07T21:28:32.857Z,46.96
2023-08-07T21:31:00.825Z,47.72
2023-08-07T21:33:28.745Z,48.62
2023-08-07T21:35:57.315Z,49.67
2023-08-07T21:38:25.285Z,49.28
2023-08-07T21:40:52.705Z,49.36
2023-08-07T21:43:20.698Z,48.97
2023-08-07T21:45:50.751Z,48.77
2023-08-07T21:48:18.904Z,48.18
2023-08-07T21:50:49.907Z,48.44
2023-08-07T21:53:17.452Z,48.75
2023-08-07T21:55:44.602Z,48.40
2023-08-07T21:58:11.887Z,48.80
2023-08-07T22:00:46.519Z,48.25
2023-08-07T22:03:13.830Z,47.61
2023-08-07T22:05:41.297Z,48.46
2023-08-07T22:08:09.285Z,48.86
2023-08-07T22:10:36.882Z,48.85
2023-08-07T22:13:04.635Z,48.45
2023-08-07T22:15:33.020Z,48.48
2023-08-07T22:18:00.418Z,47.58
2023-08-07T22:20:28.318Z,47.43
2023-08-07T22:22:56.602Z,47.29
2023-08-07T22:25:26.403Z,46.60
2023-08-07T22:27:54.171Z,46.61
2023-08-07T22:30:22.697Z,47.88
2023-08-07T22:32:51.548Z,47.58
2023-08-07T22:36:34.346Z,48.45
2023-08-07T22:40:17.769Z,47.42
2023-08-07T22:44:00.508Z,47.23
2023-08-07T22:47:43.534Z,47.22
2023-08-07T22:50:10.986Z,47.18
2023-08-07T22:52:38.654Z,48.00
2023-08-07T22:56:21.915Z,47.79
2023-08-07T23:00:05.747Z,48.99
2023-08-07T23:02:33.121Z,48.51
2023-08-07T23:05:00.502Z,48.33
2023-08-07T23:07:28.530Z,49.90
2023-08-07T23:11:11.929Z,50.78
2023-08-07T23:14:55.005Z,50.54
2023-08-07T23:18:37.482Z,49.87
2023-08-07T23:22:20.790Z,48.00
2023-08-07T23:26:04.168Z,49.58
2023-08-07T23:28:32.276Z,49.75
2023-08-07T23:31:00.317Z,49.96
2023-08-07T23:34:42.960Z,48.82
2023-08-07T23:37:10.372Z,48.67
2023-08-07T23:39:37.911Z,49.37
2023-08-07T23:42:05.915Z,48.75
2023-08-07T23:44:33.116Z,48.56
2023-08-07T23:47:00.401Z,48.24
2023-08-07T23:49:27.677Z,48.69
2023-08-07T23:51:55.539Z,48.16
2023-08-07T23:54:23.081Z,48.30
2023-08-07T23:56:50.245Z,48.21
2023-08-07T23:59:17.625Z,48.19
